NCAR-RAP Real-Time Weather Data

Output produced by METARs form (12 August 2020  18:06 UTC)
found at http://weather.rap.ucar.edu/surface/
 
KATL 121752Z VRB04KT 10SM SCT050TCU SCT250 33/20 A3002 RMK AO2 LTG DSNT N AND W SLP153 TCU ALQDS CB DSNT N & W T03330200 10344 20244 58012
KATL 121652Z 00000KT 10SM SCT045TCU SCT200 SCT250 33/21 A3004 RMK AO2 SLP159 TCU ALQDS T03330211
KATL 121552Z 00000KT 10SM FEW034 FEW200 31/21 A3006 RMK AO2 SLP165 T03110211
KATL 121452Z VRB03KT 10SM FEW200 32/22 A3006 RMK AO2 SLP166 T03170222 51006
KATL 121352Z 01004KT 10SM FEW200 FEW250 29/22 A3005 RMK AO2 SLP165 T02940222
KATL 121252Z 32005KT 10SM FEW200 FEW250 27/22 A3006 RMK AO2 SLP167 T02670217
KATL 121152Z 29005KT 10SM FEW200 SCT250 24/22 A3004 RMK AO2 SLP161 T02440217 10256 20239 53012
KATL 121052Z 31003KT 10SM SCT200 SCT250 24/22 A3002 RMK AO2 SLP153 T02440217
KATL 120952Z 31004KT 10SM BKN250 24/22 A3002 RMK AO2 SLP152 T02440217
KATL 120852Z 30007KT 10SM BKN250 24/22 A3000 RMK AO2 SLP147 T02440217 56007
KATL 120752Z 28007KT 10SM SCT050 SCT075 BKN250 24/22 A3001 RMK AO2 SLP151 T02390222
KATL 120652Z 28008KT 10SM FEW048 BKN250 24/22 A3002 RMK AO2 SLP152 T02440217
KATL 120552Z 24005KT 10SM FEW048 SCT250 26/22 A3003 RMK AO2 SLP156 T02560217 10317 20256 58000
KATL 120452Z 22004KT 10SM SCT050 BKN250 26/22 A3003 RMK AO2 SLP158 T02610217 403440222
KATL 120352Z 24005KT 10SM SCT048TCU SCT090 BKN250 27/22 A3003 RMK AO2 SLP158 TCU NE-E DSNT SE T02670217
KATL 120252Z 25003KT 10SM FEW050 FEW150 SCT250 27/22 A3003 RMK AO2 SLP157 T02670217 53020
KATL 120152Z 27005KT 10SM FEW050 SCT200 BKN250 28/22 A3000 RMK AO2 SLP148 T02830222
KATL 120052Z 27004KT 10SM FEW050 SCT200 BKN250 29/22 A2998 RMK AO2 SLP142 T02940217
KATL 112352Z 33007KT 10SM FEW048 SCT200 BKN250 32/21 A2997 RMK AO2 SLP137 TCU DSNT N T03170206 10344 20306 58002
KATL 112252Z 33005KT 10SM FEW048 SCT200 BKN250 32/21 A2998 RMK AO2 SLP140 T03220211
KATL 112152Z 35009KT 10SM FEW048TCU SCT200 SCT250 33/20 A2997 RMK AO2 SLP137 CB DSNT SW TCU SE-S T03330200
KATL 112052Z COR 33008KT 10SM FEW048TCU SCT200 SCT250 34/20 A2998 RMK AO2 LTG DSNT SW SLP139 CB DSNT N SW TCU N-NE DSNT NE T03440200 56027
KATL 111952Z 30007KT 10SM FEW044 FEW150 SCT200 SCT250 33/22 A2999 RMK AO2 SLP145 CB DSNT W T03330217
KATL 111852Z 29007KT 10SM FEW040 FEW140 SCT200 SCT250 32/22 A3002 RMK AO2 SLP154 CB DSNT NE E T03220222
KATL 111752Z 30006KT 10SM FEW036 SCT140 SCT200 BKN250 31/22 A3006 RMK AO2 SLP167 60000 T03060217 10306 20228 58002
KATL 111652Z 28006KT 10SM FEW110 BKN140 BKN200 BKN250 29/22 A3007 RMK AO2 RAE00 SLP172 ACC N-NE SE-SW P0000 T02890222
KATL 111552Z 28006KT 10SM -RA FEW110 BKN140 BKN200 BKN250 27/22 A3007 RMK AO2 RAB49 SLP171 ACC N-NE SE-SW P0000 T02720222
KATL 111452Z 29008KT 10SM FEW120 BKN140 BKN200 27/21 A3006 RMK AO2 SLP170 ACC SW-NW-NE 60000 T02720211 55002
KATL 111352Z 33007KT 10SM FEW110 SCT140 BKN200 25/21 A3006 RMK AO2 SLP169 ACC W NW-N T02500211
KATL 111252Z 33010KT 10SM FEW012 SCT045CB SCT065 BKN150 BKN200 24/21 A3007 RMK AO2 RAB32E41 SLP172 CB N-NE & DSNT SW MOV SE SHRA N-NE P0000 T02440211
KATL 111152Z 30007KT 10SM FEW045TCU SCT075 BKN150 BKN200 23/21 A3007 RMK AO2 SLP174 TCU W ACC E-SE W CB DSNT NW 70018 T02280206 10228 20222 53018
KATL 111052Z 28003KT 10SM SCT090 SCT150 SCT200 22/20 A3004 RMK AO2 SLP162 T02220200
KATL 110952Z 28004KT 10SM SCT150 22/20 A3003 RMK AO2 SLP159 T02220200
KATL 110852Z 27005KT 10SM FEW120 BKN150 23/21 A3002 RMK AO2 SLP155 T02280206 56011
KATL 110752Z 29005KT 10SM FEW005 SCT140 BKN200 22/20 A3002 RMK AO2 SLP156 T02220200
KATL 110652Z 29005KT 10SM FEW005 SCT130 BKN200 23/21 A3004 RMK AO2 SLP162 T02280206
KATL 110552Z 29008KT 10SM FEW005 SCT150 SCT200 BKN250 23/21 A3005 RMK AO2 SLP164 T02280206 10244 20222 58001
KATL 110452Z 32005KT 10SM FEW006 SCT200 BKN250 23/21 A3007 RMK AO2 SLP171 T02280206 403500228
KATL 110352Z 29004KT 10SM FEW150 SCT200 BKN250 23/21 A3006 RMK AO2 SLP167 T02330206
KATL 110252Z 27004KT 10SM FEW150 SCT200 BKN250 23/21 A3005 RMK AO2 SLP166 T02280206 58002
KATL 110152Z 00000KT 10SM SCT150 BKN200 BKN250 23/20 A3006 RMK AO2 SLP168 T02330200
KATL 110052Z 19006KT 10SM SCT150 BKN200 BKN250 23/21 A3008 RMK AO2 SLP175 T02330206
KATL 102352Z 16005KT 10SM SCT150 BKN200 BKN250 24/19 A3006 RMK AO2 SLP170 60018 T02390194 10339 20239 55012
KATL 102252Z 10005KT 10SM FEW080 SCT140 BKN200 OVC250 24/19 A3005 RMK AO2 SLP166 T02440194
KATL 102152Z 13004KT 10SM FEW045 FEW080 BKN140 OVC200 24/20 A3006 RMK AO2 SLP170 LTG DSNT SW CB DSNT SW T02440200
KATL 102052Z 09008KT 10SM FEW045 FEW075 SCT130 OVC200 24/21 A3010 RMK AO2 LTG DSNT S-NW RAE25 TSE44 SLP182 TS MOVD SE CB DSNT SE-SW-NW CBMAM DSNT SE SW P0001 60018 T02440206 53004
KATL 102045Z 08009KT 10SM FEW045 FEW075 SCT130 OVC200 24/21 A3010 RMK AO2 LTG DSNT ALQDS RAE25 TSE44 TS MOVD SE OCNL LTGICCA DSNT SE-SW CB DSNT ALQDS P0001 T02440206
KATL 101952Z 36009KT 7SM TSRA SCT036CB SCT065 BKN110 BKN200 26/22 A3007 RMK AO2 WSHFT 1923 LTG DSNT ALQDS RAE1855B22 TSB1858 SLP173 VIS LWR SW FRQ LTGICCA NE-OHD-SW TS NE-OHD-SW MOV SE CB DSNT ALQDS P0002 T02560222
KATL 101940Z 35014G22KT 7SM -TSRA SCT036CB SCT065 BKN110 BKN200 27/21 A3009 RMK AO2 WSHFT 1923 LTG DSNT ALQDS RAE1855B22 TSB1858 VIS LWR NW FRQ LTGICCGCA NE-OHD-SW TS NE-OHD-SW MOV SE CB DSNT ALQDS P0000 T02720206
KATL 101934Z 35017G22KT 10SM -TSRA SCT036CB SCT065 BKN110 BKN200 29/21 A3009 RMK AO2 LTG DSNT ALQDS RAE1855B22 TSB1858 FRQ LTGICCGCA NW-NE TS NW-NE MOV SE CB DSNT ALQDS P0000 T02890206
KATL 101859Z 20006KT 10SM TS SCT036CB SCT065 BKN110 BKN200 29/23 A3007 RMK AO2 LTG DSNT ALQDS RAE55 TSB58 FRQ LTGICCGCA NW-NE TS NW-NE MOV SE CB DSNT ALQDS P0000 T02940228
KATL 101852Z 19004KT 10SM -RA FEW040CB SCT085 BKN200 BKN250 29/22 A3007 RMK AO2 LTG DSNT ALQDS RAB14 TSB12E39 SLP172 TS DSIPTD CB NE NW MOV SE CB DSNT ALQDS TCU NW-NE P0015 T02940222
KATL 101840Z 22007KT 10SM R09R/6000VP6000FT -RA SCT050TCU SCT100 BKN200 BKN250 27/22 A3007 RMK AO2 LTG DSNT ALQDS RAB14 TSB12E39 TS DSIPTD CB DSNT ALQDS TCU N-NE E P0014 T02720217
KATL 101814Z 25012G24KT 9SM -TSRA SCT050CB SCT100 BKN200 BKN250 30/21 A3008 RMK AO2 LTG DSNT N AND NW RAB14 TSB12 OCNL LTGICCGCA SW-W TS SW-W MOV SE CB DSNT N S NW TCU ALQDS SHRA SW-W P0000 T03000206